Time;durP1;ratioP1;P1;durP2;ratioP2;P2;SDS_P1;SDS_P2;PMS_P1;PMS_P2;Temp;Humidity;BMP_temperature;BMP_pressure;BME280_temperature;BME280_humidity;BME280_pressure;Samples;Min_cycle;Max_cycle;Signal;HPM_P1;HPM_P2
2022/08/02 00:04:43;;;;;;;4.70;4.30;;;22.30;94.60;;;;;;10510758;28;20212;-82
2022/08/02 00:09:45;;;;;;;4.40;4.20;;;22.30;94.80;;;;;;10511782;28;20211;-81
2022/08/02 00:14:47;;;;;;;4.70;4.50;;;22.30;95.10;;;;;;10511829;28;20196;-81
2022/08/02 00:19:51;;;;;;;5.07;4.80;;;22.30;95.50;;;;;;10499547;28;20200;-82
2022/08/02 00:24:53;;;;;;;5.67;5.13;;;22.40;95.60;;;;;;10530707;28;20289;-81
2022/08/02 00:29:55;;;;;;;5.10;4.80;;;22.40;95.80;;;;;;10527074;28;20638;-82
2022/08/02 00:34:58;;;;;;;5.70;5.30;;;22.40;95.90;;;;;;10506614;28;20240;-81
2022/08/02 00:40:02;;;;;;;5.30;4.90;;;22.40;95.70;;;;;;10520025;28;20204;-82
2022/08/02 00:45:04;;;;;;;4.87;4.47;;;22.40;95.90;;;;;;10498673;28;20283;-81
2022/08/02 00:50:08;;;;;;;5.43;5.13;;;22.30;95.90;;;;;;10494246;28;20208;-81
2022/08/02 00:55:10;;;;;;;5.60;5.30;;;22.30;96.10;;;;;;10500784;28;20259;-82
2022/08/02 01:00:13;;;;;;;5.87;5.53;;;22.20;96.20;;;;;;10503284;28;20472;-81
2022/08/02 01:05:17;;;;;;;5.63;5.33;;;22.20;96.40;;;;;;10501733;28;20304;-81
2022/08/02 01:10:19;;;;;;;5.23;4.93;;;22.20;96.50;;;;;;10522869;28;20249;-83
2022/08/02 01:15:23;;;;;;;5.47;5.13;;;22.20;96.70;;;;;;10542206;28;20212;-83
2022/08/02 01:20:46;;;;;;;5.63;5.33;;;22.20;96.40;;;;;;10522721;28;20207;-84
2022/08/02 01:26:02;;;;;;;5.70;5.40;;;22.20;96.70;;;;;;10500714;28;20237;-84
2022/08/02 01:31:14;;;;;;;5.47;5.17;;;22.20;96.20;;;;;;10542470;28;20219;-85
2022/08/02 01:36:18;;;;;;;5.37;5.07;;;22.20;96.10;;;;;;10489976;28;20204;-84
2022/08/02 01:41:25;;;;;;;4.90;4.70;;;22.20;96.00;;;;;;10502552;28;20188;-84
2022/08/02 01:46:31;;;;;;;5.17;4.97;;;22.10;95.80;;;;;;10506884;28;20259;-84
2022/08/02 01:56:56;;;;;;;4.73;4.50;;;22.10;95.60;;;;;;10509450;28;20273;-84
2022/08/02 02:02:01;;;;;;;5.00;4.60;;;22.10;95.60;;;;;;10518920;28;20195;-84
2022/08/02 02:07:04;;;;;;;4.37;4.17;;;22.10;96.10;;;;;;10529951;28;20220;-84
2022/08/02 02:12:08;;;;;;;5.40;5.07;;;22.10;95.70;;;;;;10491956;28;20231;-84
2022/08/02 02:17:13;;;;;;;4.67;4.47;;;22.20;96.20;;;;;;10492578;28;20299;-84
2022/08/02 02:22:15;;;;;;;5.87;5.57;;;22.10;95.90;;;;;;10534365;28;20192;-84
2022/08/02 02:27:18;;;;;;;5.10;4.80;;;22.20;95.60;;;;;;10518062;28;20223;-84
2022/08/02 02:32:24;;;;;;;5.17;4.97;;;22.10;95.50;;;;;;10495860;28;20197;-84
2022/08/02 02:37:28;;;;;;;5.00;4.70;;;22.10;95.70;;;;;;10505892;28;20663;-84
2022/08/02 02:42:33;;;;;;;5.40;5.10;;;22.00;95.70;;;;;;10533220;28;20279;-83
2022/08/02 02:47:37;;;;;;;5.33;4.93;;;22.00;95.90;;;;;;10498572;28;20233;-84
2022/08/02 02:52:40;;;;;;;4.97;4.63;;;22.00;95.60;;;;;;10521565;28;20199;-84
2022/08/02 02:57:43;;;;;;;5.93;5.43;;;21.90;95.70;;;;;;10505224;28;20696;-84
2022/08/02 03:02:47;;;;;;;4.43;4.13;;;21.90;95.60;;;;;;10522097;28;20199;-84
2022/08/02 03:07:49;;;;;;;4.60;4.40;;;21.90;95.50;;;;;;10497000;28;20243;-84
2022/08/02 03:12:51;;;;;;;4.90;4.60;;;21.80;95.50;;;;;;10519040;28;20232;-84
2022/08/02 03:17:55;;;;;;;5.20;5.00;;;21.80;95.20;;;;;;10530951;28;20227;-84
2022/08/02 03:22:57;;;;;;;5.47;5.27;;;21.70;95.10;;;;;;10526746;28;20192;-84
2022/08/02 03:27:59;;;;;;;5.20;5.00;;;21.70;95.30;;;;;;10521232;28;20254;-84
2022/08/02 03:33:02;;;;;;;5.03;4.73;;;21.60;95.20;;;;;;10519230;28;20200;-84
2022/08/02 03:38:05;;;;;;;4.80;4.60;;;21.60;95.60;;;;;;10531638;28;20533;-83
2022/08/02 03:43:09;;;;;;;4.30;4.10;;;21.50;95.40;;;;;;10527530;28;20238;-84
2022/08/02 03:48:14;;;;;;;5.90;5.40;;;21.50;95.00;;;;;;10506201;28;20261;-84
2022/08/02 03:53:17;;;;;;;4.97;4.70;;;21.40;95.40;;;;;;10496224;28;20201;-84
2022/08/02 03:58:19;;;;;;;5.60;5.30;;;21.30;95.40;;;;;;10502894;28;20226;-84
2022/08/02 04:03:23;;;;;;;5.23;4.93;;;21.30;95.60;;;;;;10515905;28;20219;-84
2022/08/02 04:08:25;;;;;;;5.47;5.17;;;21.20;95.30;;;;;;10524883;28;20223;-84
2022/08/02 04:13:30;;;;;;;6.30;5.90;;;21.20;95.60;;;;;;10490526;28;20581;-84
2022/08/02 04:18:39;;;;;;;4.33;4.10;;;21.20;95.90;;;;;;10541280;28;20212;-84
2022/08/02 04:23:43;;;;;;;5.47;5.27;;;21.20;95.80;;;;;;10514135;28;20212;-83
2022/08/02 04:28:46;;;;;;;5.67;5.40;;;21.20;95.80;;;;;;10517251;28;20227;-84
2022/08/02 04:33:50;;;;;;;5.87;5.33;;;21.20;95.90;;;;;;10526305;28;20294;-83
2022/08/02 04:38:54;;;;;;;5.87;5.37;;;21.20;96.00;;;;;;10498569;28;20224;-84
2022/08/02 04:43:56;;;;;;;5.87;5.40;;;21.20;95.80;;;;;;10473409;28;20204;-83
2022/08/02 04:49:00;;;;;;;5.90;5.60;;;21.20;96.00;;;;;;10524339;28;20265;-83
2022/08/02 04:54:02;;;;;;;6.30;5.93;;;21.20;96.20;;;;;;10523297;28;20196;-84
2022/08/02 04:59:04;;;;;;;6.03;5.60;;;21.20;96.50;;;;;;10509485;28;20224;-84
2022/08/02 05:04:08;;;;;;;5.57;5.17;;;21.30;96.20;;;;;;10490991;28;20200;-84
2022/08/02 05:09:10;;;;;;;4.90;4.63;;;21.30;96.50;;;;;;10510219;28;20617;-84
2022/08/02 05:14:12;;;;;;;4.73;4.53;;;21.40;96.60;;;;;;10537534;28;20299;-84
2022/08/02 05:19:15;;;;;;;6.47;6.17;;;21.50;96.40;;;;;;10528269;28;20218;-84
2022/08/02 05:24:17;;;;;;;6.00;5.60;;;21.70;96.50;;;;;;10501966;28;20203;-85
2022/08/02 05:29:20;;;;;;;5.13;4.80;;;21.80;96.50;;;;;;10513167;28;20238;-84
2022/08/02 05:34:24;;;;;;;5.70;5.40;;;21.90;95.80;;;;;;10515983;28;20202;-84
2022/08/02 05:39:26;;;;;;;4.50;4.10;;;22.10;96.10;;;;;;10499777;28;20212;-85
2022/08/02 05:44:28;;;;;;;6.07;5.70;;;22.10;96.10;;;;;;10503385;28;20216;-85
2022/08/02 05:49:31;;;;;;;6.03;5.63;;;22.20;95.50;;;;;;10520096;28;20226;-84
2022/08/02 05:54:40;;;;;;;5.50;5.20;;;22.20;95.50;;;;;;10514608;28;20192;-84
2022/08/02 05:59:57;;;;;;;5.77;5.47;;;22.20;95.10;;;;;;10504201;28;20230;-85
2022/08/02 06:05:06;;;;;;;6.20;5.90;;;22.30;94.70;;;;;;10512902;28;20751;-85
2022/08/02 06:10:12;;;;;;;7.43;6.67;;;22.30;94.30;;;;;;10507627;28;20202;-84
2022/08/02 06:15:16;;;;;;;6.13;5.83;;;22.30;94.50;;;;;;10502835;28;20302;-85
2022/08/02 06:20:20;;;;;;;5.67;5.37;;;22.30;94.20;;;;;;10505832;28;20602;-85
2022/08/02 06:25:23;;;;;;;6.70;6.20;;;22.40;93.80;;;;;;10523427;28;20223;-85
2022/08/02 06:30:25;;;;;;;8.40;7.80;;;22.50;93.10;;;;;;10523909;28;20249;-84
2022/08/02 06:35:35;;;;;;;6.60;6.00;;;22.70;93.80;;;;;;10519646;28;20215;-84
2022/08/02 06:40:43;;;;;;;6.73;6.23;;;22.80;93.00;;;;;;10504236;28;20195;-84
2022/08/02 06:45:45;;;;;;;7.77;7.27;;;22.90;92.90;;;;;;10483767;28;20255;-85
2022/08/02 06:50:49;;;;;;;6.70;6.23;;;23.10;92.80;;;;;;10523142;28;20667;-82
2022/08/02 06:55:51;;;;;;;6.50;6.10;;;23.20;92.70;;;;;;10543420;28;20212;-82
2022/08/02 07:00:53;;;;;;;6.60;6.20;;;23.30;92.60;;;;;;10524497;28;20425;-82
2022/08/02 07:05:57;;;;;;;6.03;5.73;;;23.30;92.30;;;;;;10524428;28;20269;-82
2022/08/02 07:10:59;;;;;;;6.13;5.67;;;23.40;92.60;;;;;;10517656;28;20203;-82
2022/08/02 07:16:02;;;;;;;5.97;5.57;;;23.50;91.90;;;;;;10514576;28;20233;-81
2022/08/02 07:21:06;;;;;;;6.60;6.10;;;23.60;91.80;;;;;;10513922;28;20247;-82
2022/08/02 07:26:08;;;;;;;6.60;6.20;;;23.90;91.80;;;;;;10525565;28;20606;-82
2022/08/02 07:31:10;;;;;;;6.93;6.53;;;24.20;91.20;;;;;;10511414;28;20629;-82
2022/08/02 07:36:13;;;;;;;5.97;5.63;;;24.60;89.90;;;;;;10516379;28;20596;-82
2022/08/02 07:41:16;;;;;;;8.00;7.43;;;25.00;90.10;;;;;;10533023;28;20204;-82
2022/08/02 07:46:18;;;;;;;6.87;6.37;;;25.40;89.60;;;;;;10556042;28;20231;-82
2022/08/02 07:51:21;;;;;;;7.17;6.57;;;25.70;87.90;;;;;;10519736;28;20196;-82
2022/08/02 07:56:23;;;;;;;7.67;7.17;;;26.00;87.80;;;;;;10543949;28;20241;-82
2022/08/02 08:01:25;;;;;;;7.53;7.10;;;26.20;85.30;;;;;;10523930;28;20196;-82
2022/08/02 08:06:29;;;;;;;8.17;7.57;;;26.40;84.50;;;;;;10541296;28;20227;-82
2022/08/02 08:11:31;;;;;;;6.17;5.70;;;26.70;84.20;;;;;;10536736;28;20671;-82
2022/08/02 08:16:33;;;;;;;7.20;6.80;;;27.00;84.10;;;;;;10535107;28;20664;-82
2022/08/02 08:21:37;;;;;;;7.13;6.47;;;27.40;83.10;;;;;;10538512;28;20231;-82
2022/08/02 08:26:39;;;;;;;7.63;7.13;;;27.80;81.60;;;;;;10542315;28;20255;-83
2022/08/02 08:31:42;;;;;;;7.33;6.83;;;28.10;79.60;;;;;;10524588;28;20276;-83
2022/08/02 08:36:45;;;;;;;6.67;6.10;;;28.50;79.40;;;;;;10537433;28;20628;-82
2022/08/02 08:41:47;;;;;;;6.30;5.90;;;28.80;77.40;;;;;;10541754;28;20196;-82
2022/08/02 08:46:50;;;;;;;7.77;7.27;;;29.00;77.50;;;;;;10494765;28;20247;-82
2022/08/02 08:51:56;;;;;;;7.10;6.60;;;29.30;76.10;;;;;;10535082;28;20706;-82
2022/08/02 08:56:59;;;;;;;6.37;6.00;;;29.60;73.20;;;;;;10520247;28;20220;-83
2022/08/02 09:02:02;;;;;;;6.63;6.10;;;29.80;73.30;;;;;;10537107;28;20204;-83
2022/08/02 09:07:05;;;;;;;7.00;6.30;;;29.90;71.50;;;;;;10535675;28;20365;-83
2022/08/02 09:12:14;;;;;;;7.13;6.53;;;30.00;72.80;;;;;;10533202;28;20783;-82
2022/08/02 09:17:17;;;;;;;8.27;7.57;;;30.00;71.20;;;;;;10529212;28;20212;-83
2022/08/02 09:22:20;;;;;;;7.87;7.47;;;30.10;70.90;;;;;;10529416;28;20547;-82
2022/08/02 09:27:23;;;;;;;6.07;5.67;;;30.10;69.40;;;;;;10532842;28;20225;-83
2022/08/02 09:32:28;;;;;;;6.80;6.50;;;30.00;69.60;;;;;;10536349;28;20198;-83
2022/08/02 09:37:31;;;;;;;5.90;5.53;;;30.20;68.10;;;;;;10541268;28;20226;-82
2022/08/02 09:42:34;;;;;;;7.00;6.57;;;30.30;69.00;;;;;;10543709;28;20218;-83
2022/08/02 09:47:36;;;;;;;7.10;6.50;;;30.70;69.20;;;;;;10537940;28;20252;-83
2022/08/02 09:52:42;;;;;;;6.57;6.07;;;31.20;67.90;;;;;;10509979;28;20199;-83
2022/08/02 09:57:45;;;;;;;6.90;6.50;;;31.60;67.20;;;;;;10515282;28;20621;-83
2022/08/02 10:03:06;;;;;;;7.20;6.80;;;32.00;65.80;;;;;;10479000;28;20207;-83
2022/08/02 10:08:09;;;;;;;7.20;6.70;;;32.20;65.00;;;;;;10509693;28;20285;-83
2022/08/02 10:13:12;;;;;;;7.07;6.67;;;31.80;64.70;;;;;;10531995;28;20249;-82
2022/08/02 10:18:14;;;;;;;6.60;6.30;;;31.30;64.20;;;;;;10497966;28;20306;-83
2022/08/02 10:23:20;;;;;;;5.60;5.20;;;31.00;64.90;;;;;;10498902;28;20200;-82
2022/08/02 10:28:29;;;;;;;7.63;6.97;;;30.70;65.30;;;;;;10506544;28;20974;-82
2022/08/02 10:33:34;;;;;;;6.90;6.50;;;30.20;65.40;;;;;;10499040;28;20238;-82
2022/08/02 10:38:38;;;;;;;7.53;7.03;;;29.70;66.70;;;;;;10494037;28;20208;-83
2022/08/02 10:43:47;;;;;;;7.67;7.23;;;29.30;66.00;;;;;;10513458;28;20196;-82
2022/08/02 10:49:07;;;;;;;6.70;6.40;;;28.90;68.00;;;;;;10498085;28;20224;-82
2022/08/02 10:54:18;;;;;;;7.00;6.50;;;28.60;68.60;;;;;;10500194;28;20532;-82
2022/08/02 10:59:25;;;;;;;7.17;6.77;;;28.40;68.00;;;;;;10484299;28;20243;-82
2022/08/02 11:04:32;;;;;;;6.47;6.10;;;28.20;69.40;;;;;;10481294;28;20207;-82
2022/08/02 11:09:35;;;;;;;5.43;5.13;;;28.10;71.80;;;;;;10493874;28;20220;-82
2022/08/02 11:14:39;;;;;;;6.70;6.30;;;28.10;71.30;;;;;;10477230;28;20194;-83
2022/08/02 11:20:19;;;;;;;5.83;5.43;;;28.30;71.20;;;;;;10501201;28;20279;-83
2022/08/02 11:25:35;;;;;;;7.00;6.60;;;28.40;70.10;;;;;;10522046;28;20743;-83
2022/08/02 11:30:38;;;;;;;7.43;6.90;;;28.60;69.00;;;;;;10487399;28;20188;-83
2022/08/02 11:35:40;;;;;;;7.10;6.70;;;28.50;68.50;;;;;;10505428;28;20570;-83
2022/08/02 11:40:44;;;;;;;8.47;7.57;;;28.50;67.90;;;;;;10478834;28;20219;-82
2022/08/02 11:45:47;;;;;;;10.00;6.20;;;28.40;67.80;;;;;;10486659;28;20208;-82
2022/08/02 11:51:01;;;;;;;8.30;7.80;;;28.30;68.20;;;;;;10475470;28;20231;-82
2022/08/02 11:56:05;;;;;;;7.50;7.10;;;28.20;68.50;;;;;;10486624;28;20215;-81
2022/08/02 12:01:08;;;;;;;7.30;6.90;;;28.00;68.80;;;;;;10475612;28;20204;-82
2022/08/02 12:06:10;;;;;;;7.30;6.80;;;27.80;68.70;;;;;;10509890;28;20243;-82
2022/08/02 12:11:19;;;;;;;6.87;6.47;;;27.80;68.70;;;;;;10496963;28;20200;-82
2022/08/02 12:21:41;;;;;;;7.23;6.73;;;27.70;73.50;;;;;;10520346;28;20264;-82
2022/08/02 12:26:45;;;;;;;7.10;6.70;;;27.80;71.00;;;;;;10498872;28;20254;-82
2022/08/02 12:31:48;;;;;;;6.20;5.90;;;27.80;71.10;;;;;;10500624;28;20242;-82
2022/08/02 12:37:01;;;;;;;6.73;6.23;;;27.90;69.70;;;;;;10515522;28;20727;-82
2022/08/02 12:42:06;;;;;;;7.37;6.90;;;28.00;71.40;;;;;;10518658;28;20200;-82
2022/08/02 12:47:09;;;;;;;7.17;6.80;;;28.00;70.10;;;;;;10519003;28;20671;-82
2022/08/02 12:52:21;;;;;;;5.93;5.63;;;28.00;69.40;;;;;;10508771;28;20192;-82
2022/08/02 12:57:25;;;;;;;7.03;6.70;;;27.90;69.40;;;;;;10501232;28;20228;-82
2022/08/02 13:02:27;;;;;;;7.30;6.90;;;27.90;67.90;;;;;;10515912;28;20200;-82
2022/08/02 13:07:29;;;;;;;6.43;6.13;;;27.90;69.20;;;;;;10543148;22;20220;-79
2022/08/02 13:12:34;;;;;;;6.63;6.30;;;27.80;69.40;;;;;;10524611;28;20207;-79
2022/08/02 13:17:37;;;;;;;6.63;6.23;;;27.80;67.80;;;;;;10582312;28;20324;-78
2022/08/02 13:22:39;;;;;;;6.27;5.97;;;27.80;66.10;;;;;;10578192;28;20197;-81
2022/08/02 13:27:42;;;;;;;4.70;4.40;;;27.90;66.30;;;;;;10575946;28;20253;-80
2022/08/02 13:32:45;;;;;;;5.80;5.50;;;27.80;71.70;;;;;;10564764;28;20199;-82
2022/08/02 13:37:47;;;;;;;6.70;6.33;;;27.80;69.90;;;;;;10564382;28;20207;-80
2022/08/02 13:42:51;;;;;;;6.17;5.77;;;27.90;66.50;;;;;;10583926;28;20195;-82
2022/08/02 13:47:53;;;;;;;5.87;5.60;;;27.90;66.00;;;;;;10566496;28;20250;-81
2022/08/02 13:52:55;;;;;;;6.77;6.43;;;27.90;65.20;;;;;;10563327;28;20199;-80
2022/08/02 13:57:59;;;;;;;6.87;6.57;;;28.00;66.10;;;;;;10545951;28;20577;-79
2022/08/02 14:03:01;;;;;;;5.40;5.00;;;28.00;68.50;;;;;;10531431;28;20249;-78
2022/08/02 14:08:03;;;;;;;5.60;5.30;;;28.10;69.50;;;;;;10506144;28;20684;-78
2022/08/02 14:13:07;;;;;;;5.73;5.43;;;28.20;67.60;;;;;;10560370;28;20539;-80
2022/08/02 14:18:09;;;;;;;5.77;5.37;;;28.30;63.50;;;;;;10558292;28;20219;-80
2022/08/02 14:23:12;;;;;;;5.40;5.10;;;28.50;63.10;;;;;;10572424;28;20210;-79
2022/08/02 14:28:15;;;;;;;6.40;5.90;;;28.60;65.10;;;;;;10569939;28;20238;-79
2022/08/02 14:33:18;;;;;;;6.20;5.60;;;28.60;62.80;;;;;;10581363;28;20204;-79
2022/08/02 14:38:20;;;;;;;5.87;5.47;;;28.60;63.00;;;;;;10538877;28;20698;-80
2022/08/02 14:48:43;;;;;;;6.20;6.00;;;28.50;62.70;;;;;;10555150;28;20218;-80
2022/08/02 14:53:45;;;;;;;6.33;6.03;;;28.40;65.00;;;;;;10543666;28;20247;-80
2022/08/02 14:58:49;;;;;;;6.70;6.30;;;28.20;64.20;;;;;;10550358;28;20238;-78
2022/08/02 15:03:51;;;;;;;6.40;6.10;;;28.00;64.20;;;;;;10551751;28;20191;-79
2022/08/02 15:08:53;;;;;;;5.97;5.47;;;27.90;66.00;;;;;;10538227;28;20229;-80
2022/08/02 15:13:58;;;;;;;5.93;5.63;;;27.80;69.10;;;;;;10498725;28;20191;-78
2022/08/02 15:19:00;;;;;;;7.20;6.70;;;27.60;69.90;;;;;;10526018;28;20768;-81
2022/08/02 15:24:02;;;;;;;6.40;6.00;;;27.50;68.60;;;;;;10539879;28;20204;-79
2022/08/02 15:29:06;;;;;;;6.30;6.00;;;27.50;66.60;;;;;;10516534;28;20275;-80
2022/08/02 15:34:08;;;;;;;4.63;4.43;;;27.50;65.20;;;;;;10553160;28;20722;-77
2022/08/02 15:39:11;;;;;;;5.67;5.37;;;27.60;61.10;;;;;;10526795;28;20215;-79
2022/08/02 15:44:14;;;;;;;6.37;6.07;;;27.60;68.20;;;;;;10527939;28;20206;-78
2022/08/02 15:49:16;;;;;;;5.80;5.50;;;27.60;69.10;;;;;;10535976;28;20219;-77
2022/08/02 15:54:19;;;;;;;5.83;5.43;;;27.50;66.10;;;;;;10484193;28;20196;-79
2022/08/02 15:59:22;;;;;;;5.73;5.43;;;27.50;65.80;;;;;;10532448;28;20216;-79
2022/08/02 16:04:24;;;;;;;6.00;5.70;;;27.50;62.70;;;;;;10552196;28;20199;-76
2022/08/02 16:09:26;;;;;;;4.17;3.87;;;27.50;63.20;;;;;;10558270;28;20227;-79
2022/08/02 16:14:30;;;;;;;4.07;3.87;;;27.50;65.00;;;;;;10574961;28;20262;-79
2022/08/02 16:19:33;;;;;;;4.70;4.50;;;27.50;62.50;;;;;;10527625;28;20630;-76
2022/08/02 16:24:35;;;;;;;4.97;4.67;;;27.50;63.80;;;;;;10544512;28;20200;-78
2022/08/02 16:29:39;;;;;;;5.33;5.13;;;27.40;60.80;;;;;;10527190;28;20307;-78
2022/08/02 16:34:41;;;;;;;6.03;5.53;;;27.50;65.80;;;;;;10541793;28;20283;-80
2022/08/02 16:39:43;;;;;;;5.97;5.67;;;27.40;64.30;;;;;;10523057;28;20212;-78
2022/08/02 16:44:46;;;;;;;6.43;6.13;;;27.40;64.00;;;;;;10524354;28;20200;-80
2022/08/02 16:49:48;;;;;;;5.37;4.97;;;27.30;67.10;;;;;;10515959;28;20226;-78
2022/08/02 16:54:51;;;;;;;4.73;4.33;;;27.30;62.80;;;;;;10532368;28;20291;-79
2022/08/02 16:59:54;;;;;;;21.40;19.70;;;27.40;64.70;;;;;;10540314;28;20884;-77
2022/08/02 17:04:58;;;;;;;6.03;5.63;;;27.30;68.30;;;;;;10526827;28;20227;-80
2022/08/02 17:10:00;;;;;;;4.47;4.07;;;27.30;64.20;;;;;;10508356;28;20219;-80
2022/08/02 17:15:04;;;;;;;4.50;4.30;;;27.40;63.80;;;;;;10561615;28;20203;-79
2022/08/02 17:20:07;;;;;;;4.67;4.47;;;27.40;62.40;;;;;;10521546;28;20195;-79
2022/08/02 17:25:10;;;;;;;5.50;5.20;;;27.30;66.60;;;;;;10558477;28;20224;-78
2022/08/02 17:30:15;;;;;;;4.03;3.80;;;27.30;70.20;;;;;;10516514;28;20219;-77
2022/08/02 17:35:17;;;;;;;5.03;4.83;;;27.20;63.80;;;;;;10522658;28;20710;-79
2022/08/02 17:40:19;;;;;;;6.07;5.77;;;27.20;66.50;;;;;;10543419;28;20278;-81
2022/08/02 17:45:23;;;;;;;5.33;5.03;;;27.10;72.10;;;;;;10569741;28;20208;-80
2022/08/02 17:50:25;;;;;;;4.93;4.73;;;27.10;68.00;;;;;;10512020;28;20211;-78
2022/08/02 17:55:28;;;;;;;5.60;5.30;;;27.00;68.90;;;;;;10552569;28;20208;-80
2022/08/02 18:00:33;;;;;;;7.43;6.83;;;26.90;68.50;;;;;;10543157;28;20628;-80
2022/08/02 18:05:36;;;;;;;7.30;6.80;;;26.90;69.40;;;;;;10536356;28;20584;-79
2022/08/02 18:10:38;;;;;;;6.17;5.50;;;26.80;70.50;;;;;;10561114;28;20212;-78
2022/08/02 18:15:41;;;;;;;5.27;4.97;;;26.70;69.80;;;;;;10561894;28;20209;-79
2022/08/02 18:20:44;;;;;;;5.27;4.90;;;26.70;70.10;;;;;;10563655;28;20773;-78
2022/08/02 18:25:46;;;;;;;5.57;5.33;;;26.60;70.00;;;;;;10567464;28;20702;-78
2022/08/02 18:30:50;;;;;;;4.90;4.60;;;26.50;70.70;;;;;;10539860;28;20211;-80
2022/08/02 18:35:52;;;;;;;4.73;4.37;;;26.40;70.80;;;;;;10551375;28;20224;-79
2022/08/02 18:41:01;;;;;;;5.73;5.33;;;26.30;71.30;;;;;;10540044;28;20184;-81
2022/08/02 18:46:06;;;;;;;4.93;4.73;;;26.20;71.60;;;;;;10544308;28;20279;-78
2022/08/02 18:51:08;;;;;;;5.33;5.03;;;26.10;72.40;;;;;;10523647;28;20216;-80
2022/08/02 18:56:12;;;;;;;6.20;5.80;;;26.00;72.60;;;;;;10563608;28;20219;-79
2022/08/02 19:01:15;;;;;;;5.10;4.80;;;26.00;72.70;;;;;;10542115;28;20886;-78
2022/08/02 19:06:17;;;;;;;6.17;5.77;;;25.90;72.20;;;;;;10540037;28;20640;-79
2022/08/02 19:11:19;;;;;;;5.03;4.80;;;25.80;72.10;;;;;;10537835;28;20716;-80
2022/08/02 19:16:23;;;;;;;4.80;4.50;;;25.70;72.80;;;;;;10517878;28;20721;-80
2022/08/02 19:21:25;;;;;;;5.20;4.80;;;25.60;72.80;;;;;;10523417;28;20199;-76
2022/08/02 19:26:27;;;;;;;5.53;5.20;;;25.60;72.30;;;;;;10568425;28;20565;-79
2022/08/02 19:31:31;;;;;;;4.50;4.30;;;25.50;71.70;;;;;;10543152;28;20259;-79
2022/08/02 19:36:33;;;;;;;4.67;4.30;;;25.50;72.20;;;;;;10531815;28;20220;-81
2022/08/02 19:41:35;;;;;;;5.63;5.17;;;25.30;72.10;;;;;;10535651;28;20187;-79
2022/08/02 19:46:38;;;;;;;5.03;4.67;;;25.30;71.50;;;;;;10547702;28;20265;-82
2022/08/02 19:51:41;;;;;;;4.60;4.40;;;25.30;72.10;;;;;;10500841;28;20240;-80
2022/08/02 19:56:46;;;;;;;5.23;4.93;;;25.10;71.30;;;;;;10542939;28;20638;-80
2022/08/02 20:01:49;;;;;;;5.60;5.30;;;25.10;71.90;;;;;;10559826;28;20202;-81
2022/08/02 20:06:51;;;;;;;4.80;4.47;;;25.10;72.10;;;;;;10551230;28;20254;-81
2022/08/02 20:11:54;;;;;;;5.10;4.70;;;25.00;71.90;;;;;;10548558;28;20261;-80
2022/08/02 20:16:57;;;;;;;5.70;5.30;;;24.90;72.50;;;;;;10563276;28;20259;-80
2022/08/02 20:22:01;;;;;;;5.30;5.00;;;24.80;71.60;;;;;;10571849;28;20234;-81
2022/08/02 20:27:09;;;;;;;5.53;5.17;;;24.80;71.70;;;;;;10556324;28;20230;-77
2022/08/02 20:32:21;;;;;;;4.80;4.60;;;24.70;72.40;;;;;;10549719;28;20249;-80
2022/08/02 20:37:28;;;;;;;4.83;4.43;;;24.70;72.80;;;;;;10544698;28;20255;-81
2022/08/02 20:42:41;;;;;;;5.90;5.50;;;24.70;73.40;;;;;;10535159;28;20758;-80
2022/08/02 20:47:45;;;;;;;4.93;4.70;;;24.70;73.80;;;;;;10529644;28;20220;-79
2022/08/02 20:52:48;;;;;;;5.50;5.20;;;24.60;73.10;;;;;;10521942;28;20682;-81
2022/08/02 20:57:54;;;;;;;6.10;5.70;;;24.50;72.50;;;;;;10562366;28;20223;-80
2022/08/02 21:03:03;;;;;;;5.50;5.10;;;24.40;72.80;;;;;;10533398;28;20237;-78
2022/08/02 21:08:13;;;;;;;6.03;5.50;;;24.40;73.10;;;;;;10537032;28;20228;-80
2022/08/02 21:13:19;;;;;;;7.00;5.37;;;24.30;73.20;;;;;;10542591;28;20227;-80
2022/08/02 21:18:25;;;;;;;5.67;5.17;;;24.30;72.80;;;;;;10535854;28;20635;-80
2022/08/02 21:23:29;;;;;;;5.00;4.70;;;24.30;72.50;;;;;;10523871;28;20203;-82
2022/08/02 21:28:31;;;;;;;4.83;4.53;;;24.10;73.20;;;;;;10566768;28;20211;-81
2022/08/02 21:33:38;;;;;;;4.30;4.10;;;24.10;72.80;;;;;;10554022;28;20228;-80
2022/08/02 21:38:42;;;;;;;4.50;4.20;;;24.10;73.00;;;;;;10550337;28;20215;-80
2022/08/02 21:43:45;;;;;;;4.87;4.63;;;24.10;74.30;;;;;;10529827;28;20203;-79
2022/08/02 21:48:49;;;;;;;5.10;4.80;;;24.10;74.00;;;;;;10560537;28;20279;-80
2022/08/02 21:53:51;;;;;;;5.07;4.83;;;24.00;74.70;;;;;;10539226;28;20223;-79
2022/08/02 21:58:53;;;;;;;5.10;4.73;;;24.00;74.20;;;;;;10551616;28;20684;-79
2022/08/02 22:03:57;;;;;;;5.73;5.40;;;24.00;74.10;;;;;;10560237;28;20290;-81
2022/08/02 22:08:59;;;;;;;5.17;4.80;;;23.90;74.30;;;;;;10534891;28;20288;-79
2022/08/02 22:14:01;;;;;;;5.10;4.70;;;23.90;74.90;;;;;;10532052;28;20215;-80
2022/08/02 22:19:05;;;;;;;5.20;4.90;;;23.80;75.10;;;;;;10560991;28;20257;-78
2022/08/02 22:24:08;;;;;;;4.97;4.70;;;23.80;75.60;;;;;;10569658;28;20226;-81
2022/08/02 22:29:10;;;;;;;4.87;4.67;;;23.70;74.40;;;;;;10514175;28;20673;-79
2022/08/02 22:34:13;;;;;;;4.40;4.20;;;23.70;74.30;;;;;;10568547;28;20286;-80
2022/08/02 22:39:16;;;;;;;5.43;5.10;;;23.60;74.20;;;;;;10529740;28;20250;-81
2022/08/02 22:44:18;;;;;;;5.13;4.83;;;23.60;74.70;;;;;;10548987;28;20235;-79
2022/08/02 22:49:21;;;;;;;5.07;4.80;;;23.50;75.20;;;;;;10560949;28;20219;-78
2022/08/02 22:54:23;;;;;;;6.00;5.60;;;23.50;75.00;;;;;;10560452;28;20660;-79
2022/08/02 22:59:26;;;;;;;5.20;4.80;;;23.50;75.20;;;;;;10573109;28;20693;-80
2022/08/02 23:04:29;;;;;;;6.27;5.87;;;23.40;75.90;;;;;;10548504;28;20199;-79
2022/08/02 23:09:31;;;;;;;5.53;5.13;;;23.40;76.30;;;;;;10552493;28;20250;-80
2022/08/02 23:14:34;;;;;;;5.63;5.23;;;23.40;75.70;;;;;;10542899;28;20195;-80
2022/08/02 23:19:52;;;;;;;5.57;5.17;;;23.30;76.00;;;;;;10559859;28;20241;-78
2022/08/02 23:24:55;;;;;;;5.90;5.50;;;23.30;76.00;;;;;;10572029;28;20588;-80
2022/08/02 23:29:57;;;;;;;6.17;5.73;;;23.30;76.10;;;;;;10532903;28;20227;-78
2022/08/02 23:35:01;;;;;;;5.80;5.40;;;23.20;78.20;;;;;;10552740;28;20210;-78
2022/08/02 23:40:03;;;;;;;5.93;5.63;;;23.20;77.60;;;;;;10596405;28;20188;-79
2022/08/02 23:45:06;;;;;;;5.50;5.10;;;23.20;77.50;;;;;;10530129;28;20210;-78
2022/08/02 23:50:10;;;;;;;6.33;5.83;;;23.10;78.30;;;;;;10580112;28;20219;-79
2022/08/02 23:55:12;;;;;;;5.60;5.30;;;23.10;79.10;;;;;;10578179;28;20197;-81
